Time;durP1;ratioP1;P1;durP2;ratioP2;P2;SDS_P1;SDS_P2;PMS_P1;PMS_P2;Temp;Humidity;BMP_temperature;BMP_pressure;BME280_temperature;BME280_humidity;BME280_pressure;Samples;Min_cycle;Max_cycle;Signal;HPM_P1;HPM_P2
2021/01/19 00:01:10;;;;;;;4.67;1.90;;;4.00;72.70;;;;;;4950764;29;20035;-82
2021/01/19 00:03:36;;;;;;;5.93;1.67;;;4.00;73.10;;;;;;4913463;29;20040;-85
2021/01/19 00:06:04;;;;;;;2.83;1.90;;;4.00;72.50;;;;;;4908059;29;20040;-84
2021/01/19 00:08:31;;;;;;;4.43;1.80;;;4.00;72.80;;;;;;4907320;29;20089;-88
2021/01/19 00:10:57;;;;;;;4.07;1.80;;;4.00;72.70;;;;;;4907647;29;20075;-83
2021/01/19 00:13:23;;;;;;;3.37;1.80;;;4.00;72.70;;;;;;4910883;29;20068;-82
2021/01/19 00:15:49;;;;;;;4.27;1.60;;;4.00;72.90;;;;;;4904608;29;20028;-81
2021/01/19 00:18:15;;;;;;;4.47;1.97;;;4.00;73.00;;;;;;4937192;29;20035;-83
2021/01/19 00:20:41;;;;;;;3.60;1.73;;;4.00;72.70;;;;;;4920500;29;20059;-84
2021/01/19 00:23:07;;;;;;;3.57;1.70;;;3.90;72.70;;;;;;4899954;29;20043;-83
2021/01/19 00:25:35;;;;;;;5.97;1.90;;;3.90;73.00;;;;;;4907063;29;20035;-81
2021/01/19 00:28:01;;;;;;;5.10;2.13;;;3.90;72.90;;;;;;4907560;29;20390;-89
2021/01/19 00:30:26;;;;;;;6.40;1.80;;;3.90;73.40;;;;;;4930787;29;20031;-93
2021/01/19 00:32:52;;;;;;;4.60;1.90;;;3.90;73.20;;;;;;4933464;29;20039;-89
2021/01/19 00:35:18;;;;;;;4.00;1.80;;;3.90;73.00;;;;;;4908971;29;20036;-93
2021/01/19 00:37:43;;;;;;;4.93;2.30;;;3.90;73.10;;;;;;4911416;29;20024;-84
2021/01/19 00:40:09;;;;;;;4.50;2.10;;;3.90;72.80;;;;;;4910118;29;20032;-83
2021/01/19 00:42:35;;;;;;;4.73;1.90;;;3.90;73.10;;;;;;4935093;29;20027;-85
2021/01/19 00:45:01;;;;;;;4.27;2.20;;;3.90;73.20;;;;;;4905695;29;20050;-87
2021/01/19 00:47:26;;;;;;;4.43;2.30;;;3.90;73.00;;;;;;4915119;29;20070;-83
2021/01/19 00:49:52;;;;;;;6.27;2.00;;;3.90;73.70;;;;;;4911887;29;20031;-82
2021/01/19 00:52:17;;;;;;;9.23;2.33;;;3.90;73.60;;;;;;4925488;29;20455;-78
2021/01/19 00:54:43;;;;;;;8.70;2.83;;;3.90;73.60;;;;;;4919204;29;20039;-78
2021/01/19 00:57:09;;;;;;;3.33;2.13;;;3.80;73.50;;;;;;4897171;29;603839;-79
2021/01/19 00:59:35;;;;;;;4.47;2.00;;;3.80;73.60;;;;;;4928030;29;20036;-78
2021/01/19 01:02:00;;;;;;;3.37;2.20;;;3.80;73.60;;;;;;4917108;29;20342;-78
2021/01/19 01:04:26;;;;;;;5.27;2.30;;;3.90;73.70;;;;;;4928848;29;20501;-79
2021/01/19 01:06:53;;;;;;;3.70;2.13;;;3.80;73.40;;;;;;4931513;29;20363;-79
2021/01/19 01:09:19;;;;;;;5.90;2.40;;;3.80;73.60;;;;;;4928629;29;20028;-81
2021/01/19 01:11:45;;;;;;;6.23;2.00;;;3.80;73.20;;;;;;4931655;29;20031;-81
2021/01/19 01:14:12;;;;;;;4.33;2.00;;;3.90;73.20;;;;;;4929266;29;20032;-79
2021/01/19 01:16:38;;;;;;;4.17;1.83;;;3.90;73.10;;;;;;4913397;29;20075;-80
2021/01/19 01:19:05;;;;;;;6.23;2.13;;;3.90;72.70;;;;;;4912541;29;20028;-80
2021/01/19 01:21:36;;;;;;;4.53;2.10;;;3.90;73.00;;;;;;4931565;29;20078;-81
2021/01/19 01:24:03;;;;;;;4.53;1.90;;;3.80;72.80;;;;;;4910926;29;20040;-82
2021/01/19 01:26:29;;;;;;;6.93;2.10;;;3.80;72.70;;;;;;4910133;29;20422;-82
2021/01/19 01:28:54;;;;;;;3.93;2.00;;;3.80;73.10;;;;;;4918410;29;20083;-81
2021/01/19 01:31:20;;;;;;;3.77;1.83;;;3.80;72.60;;;;;;4908816;29;20045;-81
2021/01/19 01:33:47;;;;;;;3.77;2.07;;;3.80;72.40;;;;;;4912623;29;20366;-81
2021/01/19 01:36:14;;;;;;;4.40;1.87;;;3.80;72.50;;;;;;4932405;29;20027;-81
2021/01/19 01:38:39;;;;;;;3.07;2.00;;;3.90;72.30;;;;;;4923225;29;20061;-81
2021/01/19 01:41:13;;;;;;;4.63;2.30;;;3.90;72.50;;;;;;4918038;29;20035;-81
2021/01/19 01:43:38;;;;;;;6.53;1.83;;;3.80;72.30;;;;;;4927550;29;20040;-81
2021/01/19 01:46:04;;;;;;;6.17;2.00;;;3.80;72.50;;;;;;4910115;29;20523;-82
2021/01/19 01:48:29;;;;;;;5.37;1.77;;;3.80;72.90;;;;;;4917606;29;20053;-82
2021/01/19 01:50:55;;;;;;;6.60;2.20;;;3.80;73.20;;;;;;4919360;29;20126;-81
2021/01/19 01:53:21;;;;;;;5.63;1.87;;;3.80;73.30;;;;;;4923995;29;20568;-80
2021/01/19 01:55:46;;;;;;;4.03;2.23;;;3.80;73.20;;;;;;4927642;29;20039;-80
2021/01/19 01:58:12;;;;;;;5.50;2.10;;;3.80;73.60;;;;;;4925050;29;20056;-81
2021/01/19 02:00:38;;;;;;;5.00;2.33;;;3.80;73.80;;;;;;4903818;29;20059;-81
2021/01/19 02:03:04;;;;;;;5.97;2.13;;;3.80;74.10;;;;;;4898944;29;20037;-79
2021/01/19 02:05:29;;;;;;;5.67;2.20;;;3.70;74.50;;;;;;4899772;29;20435;-81
2021/01/19 02:08:42;;;;;;;3.87;2.00;;;3.70;75.00;;;;;;4909936;29;20079;-80
2021/01/19 02:11:23;;;;;;;5.90;2.20;;;3.60;75.00;;;;;;4880436;29;20044;-80
2021/01/19 02:14:12;;;;;;;5.77;2.10;;;3.60;75.10;;;;;;4932156;29;20044;-80
2021/01/19 02:16:56;;;;;;;5.03;2.17;;;3.60;74.90;;;;;;4902971;29;20039;-81
2021/01/19 02:20:04;;;;;;;4.87;1.97;;;3.60;75.30;;;;;;4918042;29;20043;-80
2021/01/19 02:22:48;;;;;;;3.90;2.20;;;3.60;75.40;;;;;;4903749;29;20036;-80
2021/01/19 02:25:44;;;;;;;3.17;2.10;;;3.60;75.20;;;;;;4917962;29;20028;-80
2021/01/19 02:28:28;;;;;;;5.13;2.37;;;3.50;75.20;;;;;;4905927;29;20069;-80
2021/01/19 02:31:26;;;;;;;5.27;1.93;;;3.50;75.10;;;;;;4913921;29;20043;-80
2021/01/19 02:34:16;;;;;;;3.93;1.93;;;3.50;75.20;;;;;;4907960;29;20032;-80
2021/01/19 02:36:48;;;;;;;3.90;2.10;;;3.50;75.30;;;;;;4902619;29;20056;-78
2021/01/19 02:39:22;;;;;;;5.35;1.83;;;3.50;75.20;;;;;;4913156;29;20474;-80
2021/01/19 02:41:52;;;;;;;4.83;2.10;;;3.50;75.00;;;;;;4907771;29;20036;-80
2021/01/19 02:44:25;;;;;;;5.23;2.10;;;3.50;75.20;;;;;;4933517;29;20043;-80
2021/01/19 02:46:53;;;;;;;8.47;2.13;;;3.40;75.00;;;;;;4918821;29;20040;-80
2021/01/19 02:49:20;;;;;;;4.17;1.90;;;3.40;75.00;;;;;;4914643;29;20054;-80
2021/01/19 02:51:48;;;;;;;4.83;2.20;;;3.40;75.00;;;;;;4908021;29;20495;-80
2021/01/19 02:54:15;;;;;;;6.50;2.13;;;3.40;74.70;;;;;;4912255;29;20024;-80
2021/01/19 02:57:05;;;;;;;4.10;1.90;;;3.30;74.80;;;;;;4908935;29;20068;-79
2021/01/19 02:59:49;;;;;;;4.13;1.77;;;3.40;74.70;;;;;;4912928;29;20028;-80
2021/01/19 03:02:20;;;;;;;3.90;1.97;;;3.30;74.60;;;;;;4930850;29;20393;-79
2021/01/19 03:04:47;;;;;;;4.50;1.60;;;3.30;74.40;;;;;;4903948;29;20028;-79
2021/01/19 03:07:14;;;;;;;3.90;1.90;;;3.40;74.20;;;;;;4915740;29;20056;-80
2021/01/19 03:09:40;;;;;;;6.03;1.90;;;3.40;74.00;;;;;;4909462;29;20035;-80
2021/01/19 03:12:08;;;;;;;4.43;1.60;;;3.40;73.90;;;;;;4925250;29;20020;-80
2021/01/19 03:14:36;;;;;;;4.13;1.30;;;3.40;72.60;;;;;;4933149;29;20032;-80
2021/01/19 03:17:10;;;;;;;3.87;1.57;;;3.40;73.30;;;;;;4903727;29;20043;-80
2021/01/19 03:19:43;;;;;;;4.97;1.47;;;3.50;73.00;;;;;;4917032;29;20032;-80
2021/01/19 03:22:10;;;;;;;4.33;1.30;;;3.50;72.20;;;;;;4924948;29;20032;-80
2021/01/19 03:24:39;;;;;;;4.60;1.27;;;3.50;72.10;;;;;;4916018;29;20030;-80
2021/01/19 03:27:06;;;;;;;2.40;1.50;;;3.50;71.60;;;;;;4919161;29;20039;-79
2021/01/19 03:29:32;;;;;;;4.10;1.50;;;3.50;71.70;;;;;;4929828;29;20426;-80
2021/01/19 03:31:57;;;;;;;4.27;1.37;;;3.50;72.10;;;;;;4927692;29;20034;-80
2021/01/19 03:34:23;;;;;;;3.63;1.50;;;3.50;71.60;;;;;;4905868;29;20032;-79
2021/01/19 03:36:49;;;;;;;3.00;1.40;;;3.50;71.50;;;;;;4932965;29;20040;-80
2021/01/19 03:39:14;;;;;;;3.20;1.40;;;3.60;71.40;;;;;;4905498;29;20473;-80
2021/01/19 03:41:40;;;;;;;6.33;1.30;;;3.60;71.10;;;;;;4911692;29;20032;-80
2021/01/19 03:44:06;;;;;;;4.60;1.33;;;3.60;70.80;;;;;;4928330;29;20039;-81
2021/01/19 03:46:32;;;;;;;3.00;1.27;;;3.60;70.70;;;;;;4921987;29;20028;-82
2021/01/19 03:48:59;;;;;;;3.03;1.13;;;3.60;70.60;;;;;;4915438;29;20501;-82
2021/01/19 03:51:25;;;;;;;4.87;1.30;;;3.70;70.50;;;;;;4913259;29;20036;-81
2021/01/19 03:53:51;;;;;;;3.53;1.30;;;3.60;70.20;;;;;;4926638;29;20034;-80
2021/01/19 03:56:17;;;;;;;4.37;1.30;;;3.70;70.20;;;;;;4906623;29;20088;-80
2021/01/19 03:58:43;;;;;;;2.83;1.10;;;3.70;70.40;;;;;;4932962;29;20031;-80
2021/01/19 04:01:08;;;;;;;4.00;1.80;;;3.70;70.10;;;;;;4904706;29;20036;-81
2021/01/19 04:03:34;;;;;;;3.57;1.37;;;3.70;70.00;;;;;;4929471;29;20450;-79
2021/01/19 04:06:00;;;;;;;2.90;1.10;;;3.70;70.10;;;;;;4927279;29;20098;-79
2021/01/19 04:08:26;;;;;;;3.23;1.40;;;3.70;69.30;;;;;;4922080;29;20434;-79
2021/01/19 04:10:51;;;;;;;2.73;1.33;;;3.70;69.20;;;;;;4948624;29;20035;-79
2021/01/19 04:13:18;;;;;;;2.83;0.90;;;3.70;69.40;;;;;;4914315;29;20028;-79
2021/01/19 04:15:45;;;;;;;4.77;1.40;;;3.70;69.70;;;;;;4908673;29;20059;-78
2021/01/19 04:18:11;;;;;;;2.80;1.00;;;3.70;69.20;;;;;;4924111;29;20028;-79
2021/01/19 04:20:37;;;;;;;1.77;0.80;;;3.70;69.40;;;;;;4932348;29;20031;-79
2021/01/19 04:23:03;;;;;;;2.03;1.10;;;3.70;69.10;;;;;;4903104;29;20481;-79
2021/01/19 04:25:28;;;;;;;2.77;0.97;;;3.80;69.00;;;;;;4929786;29;20179;-83
2021/01/19 04:27:54;;;;;;;1.87;1.10;;;3.80;69.20;;;;;;4926880;29;20032;-84
2021/01/19 04:30:20;;;;;;;6.40;1.30;;;3.80;69.40;;;;;;4923188;29;20036;-84
2021/01/19 04:32:47;;;;;;;2.20;0.97;;;3.70;69.50;;;;;;4915766;29;20541;-84
2021/01/19 04:35:13;;;;;;;5.10;1.03;;;3.80;69.00;;;;;;4921672;29;20048;-80
2021/01/19 04:37:39;;;;;;;4.73;1.50;;;3.70;69.10;;;;;;4928122;29;20497;-80
2021/01/19 04:40:06;;;;;;;5.50;1.77;;;3.70;69.40;;;;;;4927875;29;20066;-80
2021/01/19 04:42:37;;;;;;;4.27;1.73;;;3.70;69.30;;;;;;4916343;29;20071;-80
2021/01/19 04:45:05;;;;;;;5.57;1.10;;;3.70;69.40;;;;;;4915126;29;20178;-79
2021/01/19 04:47:35;;;;;;;2.43;1.10;;;3.70;69.50;;;;;;4907013;29;20028;-81
2021/01/19 04:50:04;;;;;;;3.83;0.97;;;3.70;69.70;;;;;;4932451;29;20111;-81
2021/01/19 04:52:32;;;;;;;5.63;1.00;;;3.70;69.70;;;;;;4904735;29;20079;-81
2021/01/19 04:55:23;;;;;;;3.80;1.10;;;3.70;69.60;;;;;;4933695;29;20027;-81
2021/01/19 04:57:58;;;;;;;1.83;0.70;;;3.70;69.00;;;;;;4909194;29;20059;-81
2021/01/19 05:00:33;;;;;;;1.13;0.77;;;3.70;69.30;;;;;;4914045;29;20397;-81
2021/01/19 05:03:00;;;;;;;2.43;0.90;;;3.70;69.20;;;;;;4932313;29;20034;-81
2021/01/19 05:05:37;;;;;;;3.40;1.20;;;3.70;69.20;;;;;;4929783;29;20032;-81
2021/01/19 05:08:15;;;;;;;4.23;1.20;;;3.70;69.60;;;;;;4910629;29;20477;-81
2021/01/19 05:10:53;;;;;;;2.57;1.00;;;3.70;69.30;;;;;;4903551;29;20036;-81
2021/01/19 05:13:47;;;;;;;1.87;0.80;;;3.70;69.40;;;;;;4913597;29;20060;-81
2021/01/19 05:16:22;;;;;;;2.50;1.00;;;3.70;69.70;;;;;;4929402;29;20038;-81
2021/01/19 05:18:49;;;;;;;2.30;1.00;;;3.70;69.60;;;;;;4919347;29;20043;-81
2021/01/19 05:21:15;;;;;;;3.67;0.93;;;3.60;69.70;;;;;;4914978;29;20051;-80
2021/01/19 05:23:41;;;;;;;2.27;0.90;;;3.60;69.50;;;;;;4920396;29;20032;-81
2021/01/19 05:26:11;;;;;;;4.30;1.17;;;3.60;69.40;;;;;;4914698;29;20028;-80
2021/01/19 05:28:40;;;;;;;2.40;1.07;;;3.50;69.50;;;;;;4923805;29;20063;-80
2021/01/19 05:31:14;;;;;;;1.93;1.30;;;3.60;69.60;;;;;;4934805;29;20434;-80
2021/01/19 05:33:52;;;;;;;2.57;0.90;;;3.50;69.50;;;;;;4911292;29;20051;-80
2021/01/19 05:36:19;;;;;;;3.10;1.30;;;3.50;69.70;;;;;;4925837;29;20107;-80
2021/01/19 05:38:55;;;;;;;2.93;1.20;;;3.50;69.60;;;;;;4935168;29;20028;-80
2021/01/19 05:41:38;;;;;;;3.20;1.10;;;3.50;70.00;;;;;;4908463;29;20035;-80
2021/01/19 05:44:26;;;;;;;4.33;1.50;;;3.50;70.00;;;;;;4927289;29;20032;-80
2021/01/19 05:46:59;;;;;;;3.47;1.20;;;3.50;69.80;;;;;;4920808;29;20031;-80
2021/01/19 05:49:27;;;;;;;4.10;1.33;;;3.50;69.90;;;;;;4918950;29;20031;-79
2021/01/19 05:51:57;;;;;;;1.83;0.90;;;3.50;69.90;;;;;;4911412;29;20032;-80
2021/01/19 05:54:31;;;;;;;2.60;1.17;;;3.40;70.00;;;;;;4916561;29;20148;-80
2021/01/19 05:57:03;;;;;;;4.83;1.30;;;3.40;69.80;;;;;;4927234;29;20139;-79
2021/01/19 05:59:39;;;;;;;3.85;1.13;;;3.40;70.00;;;;;;4915019;29;20060;-80
2021/01/19 06:02:16;;;;;;;3.77;1.20;;;3.50;70.00;;;;;;4930162;29;20064;-79
2021/01/19 06:04:47;;;;;;;1.87;1.00;;;3.40;70.00;;;;;;4905495;29;20032;-77
2021/01/19 06:07:14;;;;;;;5.47;1.27;;;3.40;70.30;;;;;;4916765;29;20039;-78
2021/01/19 06:09:42;;;;;;;5.00;0.90;;;3.40;70.10;;;;;;4927272;29;20028;-81
2021/01/19 06:12:08;;;;;;;1.73;1.00;;;3.40;70.30;;;;;;4926694;29;20541;-80
2021/01/19 06:14:35;;;;;;;2.70;1.00;;;3.40;70.40;;;;;;4917492;29;20062;-80
2021/01/19 06:17:13;;;;;;;1.70;0.90;;;3.40;70.30;;;;;;4905019;29;20030;-80
2021/01/19 06:19:43;;;;;;;1.60;1.10;;;3.40;70.30;;;;;;4935163;29;20481;-79
2021/01/19 06:22:23;;;;;;;3.17;0.87;;;3.50;70.00;;;;;;4909489;29;20040;-79
2021/01/19 06:24:50;;;;;;;2.77;0.90;;;3.50;70.20;;;;;;4934223;29;20080;-81
2021/01/19 06:27:25;;;;;;;2.73;1.00;;;3.40;70.30;;;;;;4916357;29;20032;-79
2021/01/19 06:30:00;;;;;;;3.20;1.13;;;3.40;70.70;;;;;;4927560;29;20056;-79
2021/01/19 06:32:32;;;;;;;3.37;0.93;;;3.50;70.40;;;;;;4906486;29;20060;-79
2021/01/19 06:35:09;;;;;;;2.08;0.70;;;3.40;70.60;;;;;;4916991;29;20489;-78
2021/01/19 06:37:35;;;;;;;2.97;0.93;;;3.50;70.30;;;;;;4909535;29;20035;-79
2021/01/19 06:40:07;;;;;;;4.90;1.03;;;3.50;71.00;;;;;;4925692;29;20036;-79
2021/01/19 06:42:34;;;;;;;4.57;0.80;;;3.50;70.30;;;;;;4916697;29;20083;-77
2021/01/19 06:45:10;;;;;;;3.67;0.90;;;3.50;70.90;;;;;;4904523;29;20019;-78
2021/01/19 06:47:52;;;;;;;2.17;0.87;;;3.50;70.40;;;;;;4925554;29;20462;-79
2021/01/19 06:50:28;;;;;;;3.07;0.90;;;3.40;70.10;;;;;;4944883;29;20114;-79
2021/01/19 06:53:31;;;;;;;3.87;1.00;;;3.40;70.20;;;;;;4919280;29;20109;-78
2021/01/19 06:56:09;;;;;;;2.73;1.20;;;3.40;70.30;;;;;;4926691;29;20035;-78
2021/01/19 06:58:52;;;;;;;1.93;0.97;;;3.50;70.70;;;;;;4905413;29;20028;-79
2021/01/19 07:01:28;;;;;;;2.70;0.90;;;3.50;70.40;;;;;;4937593;29;20087;-78
2021/01/19 07:04:21;;;;;;;2.17;1.00;;;3.50;70.50;;;;;;4909663;29;20032;-78
2021/01/19 07:07:15;;;;;;;3.10;0.73;;;3.50;70.10;;;;;;4916175;29;20027;-78
2021/01/19 07:10:05;;;;;;;1.43;0.73;;;3.50;70.00;;;;;;4909482;29;20473;-78
2021/01/19 07:12:46;;;;;;;2.47;0.90;;;3.50;69.90;;;;;;4922293;29;20039;-79
2021/01/19 07:15:16;;;;;;;4.07;1.10;;;3.50;70.00;;;;;;4936523;29;20023;-80
2021/01/19 07:17:59;;;;;;;3.37;0.93;;;3.50;69.90;;;;;;4928922;29;20142;-80
2021/01/19 07:20:32;;;;;;;3.67;1.00;;;3.50;69.60;;;;;;4914895;29;20042;-81
2021/01/19 07:23:21;;;;;;;4.40;0.80;;;3.50;70.00;;;;;;4903946;29;20032;-80
2021/01/19 07:25:46;;;;;;;5.40;0.97;;;3.50;69.70;;;;;;4908715;29;20122;-81
2021/01/19 07:28:12;;;;;;;2.33;1.10;;;3.50;70.00;;;;;;4912967;29;20032;-80
2021/01/19 07:30:39;;;;;;;4.20;1.10;;;3.60;69.70;;;;;;4921111;29;20032;-81
2021/01/19 07:33:05;;;;;;;3.10;1.10;;;3.60;69.60;;;;;;4916977;29;20063;-78
2021/01/19 07:35:34;;;;;;;6.07;1.10;;;3.60;69.60;;;;;;4906775;29;20063;-81
2021/01/19 07:38:01;;;;;;;3.60;0.83;;;3.60;69.90;;;;;;4917234;29;20040;-80
2021/01/19 07:40:27;;;;;;;1.80;0.93;;;3.60;69.60;;;;;;4924201;29;20041;-77
2021/01/19 07:42:53;;;;;;;3.77;1.00;;;3.60;69.70;;;;;;4934662;28;20115;-76
2021/01/19 07:45:32;;;;;;;5.40;1.00;;;3.60;69.50;;;;;;4921671;29;20036;-77
2021/01/19 07:48:06;;;;;;;4.00;0.90;;;3.60;69.40;;;;;;4919182;29;20028;-77
2021/01/19 07:50:44;;;;;;;1.60;0.83;;;3.60;69.10;;;;;;4916031;29;20560;-76
2021/01/19 07:53:11;;;;;;;2.87;0.90;;;3.60;69.20;;;;;;4935095;29;20083;-76
2021/01/19 07:55:46;;;;;;;3.00;1.00;;;3.60;68.90;;;;;;4913992;29;20501;-78
2021/01/19 07:58:20;;;;;;;3.07;1.00;;;3.70;69.30;;;;;;4930185;29;20079;-78
2021/01/19 08:00:47;;;;;;;4.47;0.90;;;3.60;68.70;;;;;;4933816;29;20058;-76
2021/01/19 08:03:13;;;;;;;4.83;0.90;;;3.70;69.20;;;;;;4904667;29;20056;-78
2021/01/19 08:05:39;;;;;;;4.50;1.17;;;3.70;69.00;;;;;;4910560;29;20036;-78
2021/01/19 08:08:16;;;;;;;1.77;0.80;;;3.70;68.70;;;;;;4906755;29;20144;-79
2021/01/19 08:10:53;;;;;;;5.97;1.10;;;3.70;69.10;;;;;;4928672;29;20035;-78
2021/01/19 08:13:19;;;;;;;6.70;1.10;;;3.70;69.30;;;;;;4913613;29;20025;-80
2021/01/19 08:15:59;;;;;;;4.20;1.10;;;3.70;68.90;;;;;;4899547;29;20056;-77
2021/01/19 08:18:37;;;;;;;4.60;1.47;;;3.80;68.80;;;;;;4930317;29;20059;-79
2021/01/19 08:21:07;;;;;;;2.50;1.13;;;3.70;68.70;;;;;;4914250;29;20167;-79
2021/01/19 08:23:34;;;;;;;5.00;1.30;;;3.70;68.60;;;;;;4921545;29;20036;-80
2021/01/19 08:26:08;;;;;;;3.47;0.97;;;3.70;68.70;;;;;;4906445;29;20036;-78
2021/01/19 08:28:36;;;;;;;2.67;0.80;;;3.70;68.70;;;;;;4911750;29;20437;-80
2021/01/19 08:31:12;;;;;;;1.60;0.83;;;3.70;68.90;;;;;;4925728;29;20549;-79
2021/01/19 08:33:40;;;;;;;2.77;0.73;;;3.70;68.70;;;;;;4916421;29;20036;-76
2021/01/19 08:36:06;;;;;;;3.00;0.80;;;3.70;68.80;;;;;;4898641;29;20453;-76
2021/01/19 08:38:32;;;;;;;6.30;1.10;;;3.70;69.00;;;;;;4899135;29;20028;-76
2021/01/19 08:40:58;;;;;;;4.17;0.80;;;3.80;68.90;;;;;;4913962;29;20031;-77
2021/01/19 08:43:24;;;;;;;3.17;0.80;;;3.80;68.90;;;;;;4899194;29;20106;-78
2021/01/19 08:45:49;;;;;;;2.23;0.80;;;3.80;68.80;;;;;;4907478;29;20035;-77
2021/01/19 08:48:16;;;;;;;3.07;0.80;;;3.80;69.00;;;;;;4905545;29;20039;-76
2021/01/19 08:50:42;;;;;;;2.23;0.80;;;3.80;68.50;;;;;;4914859;29;20059;-78
2021/01/19 08:53:08;;;;;;;2.27;1.00;;;3.80;68.60;;;;;;4902008;29;20035;-78
2021/01/19 08:55:35;;;;;;;2.93;0.90;;;3.80;68.50;;;;;;4910944;29;20024;-77
2021/01/19 08:58:00;;;;;;;5.27;1.60;;;3.80;68.20;;;;;;4928935;29;20079;-77
2021/01/19 09:00:27;;;;;;;4.77;1.30;;;3.80;68.40;;;;;;4907279;29;20028;-76
2021/01/19 09:02:54;;;;;;;3.53;0.90;;;3.80;68.10;;;;;;4925427;29;20091;-77
2021/01/19 09:05:28;;;;;;;4.37;1.20;;;3.80;68.60;;;;;;4916113;29;20054;-77
2021/01/19 09:07:55;;;;;;;4.73;1.10;;;3.80;68.50;;;;;;4912100;29;20389;-76
2021/01/19 09:10:26;;;;;;;2.07;0.87;;;3.80;68.00;;;;;;4925450;29;20028;-77
2021/01/19 09:12:53;;;;;;;3.53;0.80;;;3.90;68.50;;;;;;4934780;29;20024;-77
2021/01/19 09:15:19;;;;;;;2.50;1.10;;;3.90;68.30;;;;;;4908431;29;20042;-80
2021/01/19 09:17:56;;;;;;;4.17;1.00;;;3.90;68.30;;;;;;4929627;29;20028;-79
2021/01/19 09:20:24;;;;;;;1.77;0.80;;;4.00;68.60;;;;;;4916193;29;20039;-84
2021/01/19 09:22:50;;;;;;;3.53;1.40;;;4.00;68.10;;;;;;4922328;29;20067;-80
2021/01/19 09:25:19;;;;;;;3.77;1.00;;;4.00;68.50;;;;;;4916794;29;20032;-78
2021/01/19 09:27:45;;;;;;;4.80;1.20;;;4.00;68.30;;;;;;4910583;29;20028;-77
2021/01/19 09:30:13;;;;;;;2.73;1.00;;;4.00;68.50;;;;;;4909119;29;20386;-75
2021/01/19 09:32:40;;;;;;;5.97;1.60;;;4.00;67.60;;;;;;4917781;29;20469;-77
2021/01/19 09:35:07;;;;;;;6.87;1.50;;;4.00;67.80;;;;;;4922159;29;20024;-77
2021/01/19 09:37:33;;;;;;;2.73;0.90;;;4.00;67.70;;;;;;4931140;29;20028;-79
2021/01/19 09:39:59;;;;;;;3.97;1.00;;;4.00;67.60;;;;;;4911963;29;20040;-78
2021/01/19 09:42:26;;;;;;;3.93;0.90;;;4.00;67.90;;;;;;4907548;29;20040;-78
2021/01/19 09:44:52;;;;;;;3.23;0.90;;;4.00;67.70;;;;;;4917036;29;20027;-75
2021/01/19 09:47:23;;;;;;;4.13;1.00;;;4.10;67.40;;;;;;4906845;29;20055;-76
2021/01/19 09:49:51;;;;;;;6.43;1.43;;;4.10;67.70;;;;;;4917135;29;20032;-76
2021/01/19 09:52:17;;;;;;;4.00;1.10;;;4.10;68.00;;;;;;4908127;29;20032;-78
2021/01/19 09:54:43;;;;;;;4.53;1.33;;;4.20;67.50;;;;;;4917440;29;20034;-79
2021/01/19 09:57:09;;;;;;;4.50;1.10;;;4.20;67.40;;;;;;4932814;29;20054;-77
2021/01/19 09:59:35;;;;;;;4.73;0.90;;;4.20;67.40;;;;;;4913414;29;20028;-79
2021/01/19 10:02:01;;;;;;;3.77;0.87;;;4.20;67.20;;;;;;4911942;29;20032;-76
2021/01/19 10:04:28;;;;;;;3.27;0.90;;;4.30;67.40;;;;;;4906271;29;20043;-75
2021/01/19 10:07:09;;;;;;;2.63;1.00;;;4.30;67.60;;;;;;4933085;29;20028;-77
2021/01/19 10:09:35;;;;;;;4.83;1.60;;;4.30;66.80;;;;;;4908619;29;20083;-76
2021/01/19 10:12:08;;;;;;;4.83;0.80;;;4.30;66.90;;;;;;4925420;29;20032;-76
2021/01/19 10:14:43;;;;;;;4.37;1.00;;;4.40;67.30;;;;;;4918160;29;20060;-76
2021/01/19 10:17:09;;;;;;;9.07;1.20;;;4.40;67.20;;;;;;4922210;29;20082;-75
2021/01/19 10:19:37;;;;;;;4.13;0.83;;;4.40;67.00;;;;;;4933847;29;20429;-76
2021/01/19 10:22:04;;;;;;;3.17;0.83;;;4.40;67.00;;;;;;4908154;29;20039;-79
2021/01/19 10:24:30;;;;;;;4.17;1.20;;;4.40;67.10;;;;;;4917156;29;20067;-76
2021/01/19 10:27:10;;;;;;;5.53;1.07;;;4.40;67.00;;;;;;4920384;29;20429;-77
2021/01/19 10:29:37;;;;;;;2.57;1.00;;;4.50;66.80;;;;;;4912843;29;20483;-77
2021/01/19 10:32:05;;;;;;;5.43;1.10;;;4.50;66.70;;;;;;4911337;29;20812;-77
2021/01/19 10:34:35;;;;;;;3.27;1.17;;;4.50;66.50;;;;;;4919939;29;20122;-77
2021/01/19 10:37:02;;;;;;;4.80;1.33;;;4.50;67.00;;;;;;4903469;29;20028;-77
2021/01/19 10:39:30;;;;;;;4.57;1.60;;;4.50;66.80;;;;;;4930254;29;20046;-78
2021/01/19 10:41:57;;;;;;;2.70;1.20;;;4.50;66.80;;;;;;4910173;29;20031;-78
2021/01/19 10:44:26;;;;;;;7.23;1.27;;;4.50;67.10;;;;;;4923023;29;20155;-78
2021/01/19 10:47:00;;;;;;;4.97;1.20;;;4.60;66.50;;;;;;4922015;29;20023;-76
2021/01/19 10:49:31;;;;;;;4.27;1.00;;;4.60;67.00;;;;;;4916238;29;20032;-75
2021/01/19 10:51:57;;;;;;;3.80;1.20;;;4.60;66.70;;;;;;4908621;29;20096;-75
2021/01/19 10:54:24;;;;;;;5.03;1.40;;;4.60;66.90;;;;;;4930256;29;20067;-77
2021/01/19 10:57:01;;;;;;;6.47;1.30;;;4.60;66.70;;;;;;4917509;29;20047;-78
2021/01/19 10:59:27;;;;;;;7.00;1.30;;;4.60;67.00;;;;;;4906915;29;20038;-76
2021/01/19 11:01:52;;;;;;;5.57;1.57;;;4.60;66.90;;;;;;4909430;29;20031;-78
2021/01/19 11:04:18;;;;;;;5.10;1.20;;;4.60;67.10;;;;;;4930987;29;20028;-77
2021/01/19 11:06:44;;;;;;;4.90;1.23;;;4.60;66.90;;;;;;4903568;29;20028;-74
2021/01/19 11:09:10;;;;;;;3.53;0.90;;;4.60;66.80;;;;;;4932220;29;20036;-75
2021/01/19 11:11:36;;;;;;;6.20;1.43;;;4.60;67.20;;;;;;4924557;29;20466;-75
2021/01/19 11:14:07;;;;;;;5.70;1.20;;;4.60;67.50;;;;;;4907627;29;20032;-76
2021/01/19 11:16:43;;;;;;;7.63;1.60;;;4.50;67.20;;;;;;4927734;29;20024;-75
2021/01/19 11:19:12;;;;;;;4.43;1.07;;;4.50;67.60;;;;;;4901384;29;20047;-75
2021/01/19 11:21:40;;;;;;;7.13;1.23;;;4.60;67.90;;;;;;4927669;29;20067;-75
2021/01/19 11:24:08;;;;;;;2.57;1.20;;;4.60;67.80;;;;;;4909663;29;20031;-74
2021/01/19 11:26:42;;;;;;;2.63;1.07;;;4.60;68.10;;;;;;4902850;29;20060;-76
2021/01/19 11:29:08;;;;;;;4.33;1.07;;;4.60;67.90;;;;;;4917786;29;20157;-76
2021/01/19 11:31:35;;;;;;;5.90;1.30;;;4.50;68.50;;;;;;4918270;29;20036;-75
2021/01/19 11:34:09;;;;;;;5.57;1.53;;;4.60;68.70;;;;;;4933353;29;20100;-77
2021/01/19 11:36:39;;;;;;;5.10;1.23;;;4.60;68.70;;;;;;4935618;29;20046;-77
2021/01/19 11:39:09;;;;;;;3.07;1.30;;;4.60;69.80;;;;;;4915869;29;20031;-77
2021/01/19 11:41:36;;;;;;;4.50;1.47;;;4.60;69.70;;;;;;4900168;29;20493;-78
2021/01/19 11:44:06;;;;;;;6.70;1.53;;;4.60;70.00;;;;;;4909849;29;20043;-77
2021/01/19 11:46:32;;;;;;;4.73;1.27;;;4.60;69.90;;;;;;4917406;29;20103;-77
2021/01/19 11:49:01;;;;;;;4.80;1.23;;;4.60;69.60;;;;;;4914038;29;20032;-76
2021/01/19 11:51:29;;;;;;;5.80;1.23;;;4.60;70.20;;;;;;4902475;29;20485;-78
2021/01/19 11:53:58;;;;;;;4.93;1.20;;;4.70;70.30;;;;;;4908943;29;20027;-76
2021/01/19 11:56:43;;;;;;;5.33;1.20;;;4.60;70.10;;;;;;4918362;29;20051;-77
2021/01/19 11:59:10;;;;;;;4.10;1.40;;;4.60;70.60;;;;;;4918113;29;20118;-76
2021/01/19 12:01:36;;;;;;;4.33;1.20;;;4.60;70.80;;;;;;4928129;29;20032;-79
2021/01/19 12:04:03;;;;;;;7.00;1.50;;;4.50;71.20;;;;;;4909217;29;20147;-80
2021/01/19 12:06:36;;;;;;;3.43;1.20;;;4.50;71.50;;;;;;4903892;29;20032;-79
2021/01/19 12:09:03;;;;;;;5.43;1.40;;;4.50;72.50;;;;;;4915900;29;20187;-80
2021/01/19 12:11:29;;;;;;;4.07;1.40;;;4.50;72.70;;;;;;4930621;29;20031;-79
2021/01/19 12:13:55;;;;;;;4.77;1.33;;;4.60;73.00;;;;;;4908151;29;20028;-79
2021/01/19 12:16:22;;;;;;;3.73;1.33;;;4.50;73.80;;;;;;4912886;29;20032;-75
2021/01/19 12:18:52;;;;;;;8.20;1.50;;;4.40;74.40;;;;;;4918418;29;20497;-76
2021/01/19 12:21:18;;;;;;;7.20;1.30;;;4.40;75.70;;;;;;4912355;29;20043;-78
2021/01/19 12:23:45;;;;;;;8.00;1.37;;;4.40;76.30;;;;;;4923352;29;20110;-78
2021/01/19 12:26:11;;;;;;;3.43;1.20;;;4.40;76.10;;;;;;4917232;29;20036;-79
2021/01/19 12:28:37;;;;;;;4.63;1.27;;;4.40;77.10;;;;;;4902781;29;20031;-75
2021/01/19 12:31:03;;;;;;;3.53;1.70;;;4.50;77.00;;;;;;4914052;29;20032;-77
2021/01/19 12:33:29;;;;;;;7.93;1.73;;;4.50;76.90;;;;;;4909215;29;20032;-77
2021/01/19 12:35:55;;;;;;;4.20;1.60;;;4.50;77.10;;;;;;4911452;29;20031;-78
2021/01/19 12:38:22;;;;;;;6.23;1.33;;;4.50;77.40;;;;;;4915588;29;20059;-75
2021/01/19 12:40:48;;;;;;;5.07;1.60;;;4.50;78.10;;;;;;4904952;29;20036;-76
2021/01/19 12:43:14;;;;;;;8.90;1.23;;;4.50;77.50;;;;;;4933443;29;20063;-78
2021/01/19 12:45:39;;;;;;;4.93;1.30;;;4.50;76.10;;;;;;4910475;29;20122;-78
2021/01/19 12:48:06;;;;;;;7.67;1.30;;;4.40;76.10;;;;;;4926410;29;20036;-79
2021/01/19 12:50:33;;;;;;;9.60;1.40;;;4.40;76.90;;;;;;4917215;29;20039;-79
2021/01/19 12:53:01;;;;;;;3.73;1.40;;;4.50;77.20;;;;;;4905124;29;20039;-80
2021/01/19 12:55:28;;;;;;;5.70;1.37;;;4.50;77.60;;;;;;4921964;29;20032;-80
2021/01/19 12:57:54;;;;;;;3.33;1.30;;;4.40;76.90;;;;;;4910846;29;20075;-79
2021/01/19 13:00:20;;;;;;;3.10;1.30;;;4.40;76.60;;;;;;4915847;29;20066;-81
2021/01/19 13:02:46;;;;;;;3.43;1.43;;;4.40;77.00;;;;;;4916690;29;20054;-76
2021/01/19 13:05:12;;;;;;;4.90;1.27;;;4.40;76.90;;;;;;4916941;29;20466;-80
2021/01/19 13:07:41;;;;;;;5.37;1.30;;;4.40;76.50;;;;;;4926592;29;20032;-80
2021/01/19 13:10:08;;;;;;;6.00;1.30;;;4.40;76.60;;;;;;4925765;29;20024;-77
2021/01/19 13:12:35;;;;;;;4.67;1.50;;;4.40;76.70;;;;;;4917793;29;20035;-78